createdAt,value
2019-01-17T00:02:35.598Z,59.65
2019-01-17T00:05:25.450Z,59.71
2019-01-17T00:08:14.629Z,60.18
2019-01-17T00:11:04.118Z,59.66
2019-01-17T00:14:01.814Z,59.66
2019-01-17T00:16:49.267Z,59.38
2019-01-17T00:19:35.788Z,59.44
2019-01-17T00:22:43.615Z,59.99
2019-01-17T00:25:41.244Z,60.09
2019-01-17T00:28:23.522Z,59.97
2019-01-17T00:31:11.221Z,59.61
2019-01-17T00:33:49.574Z,59.78
2019-01-17T00:36:39.643Z,60.04
2019-01-17T00:39:29.204Z,59.77
2019-01-17T00:42:11.113Z,59.51
2019-01-17T00:45:00.371Z,59.94
2019-01-17T00:48:07.944Z,59.66
2019-01-17T00:51:08.521Z,59.98
2019-01-17T00:53:49.368Z,60.30
2019-01-17T00:56:44.178Z,60.03
2019-01-17T00:59:36.235Z,60.76
2019-01-17T01:02:31.366Z,60.10
2019-01-17T01:05:26.635Z,60.10
2019-01-17T01:08:14.155Z,60.28
2019-01-17T01:10:54.198Z,60.57
2019-01-17T01:13:41.978Z,59.76
2019-01-17T01:16:50.915Z,60.87
2019-01-17T01:19:31.816Z,59.87
2019-01-17T01:22:23.560Z,59.33
2019-01-17T01:25:15.221Z,59.05
2019-01-17T01:28:03.337Z,59.18
2019-01-17T01:30:57.272Z,59.50
2019-01-17T01:33:41.375Z,60.42
2019-01-17T01:36:28.926Z,59.11
2019-01-17T01:39:24.142Z,58.89
2019-01-17T01:42:11.457Z,59.02
2019-01-17T01:44:56.526Z,58.67
2019-01-17T01:47:37.784Z,59.14
2019-01-17T01:50:25.000Z,59.13
2019-01-17T01:53:05.943Z,59.35
2019-01-17T01:55:36.717Z,59.54
2019-01-17T01:58:07.008Z,59.50
2019-01-17T02:00:37.132Z,59.58
2019-01-17T02:03:07.038Z,59.22
2019-01-17T02:05:37.099Z,59.19
2019-01-17T02:08:07.232Z,59.55
2019-01-17T02:10:37.230Z,59.21
2019-01-17T02:13:07.160Z,59.45
2019-01-17T02:15:37.324Z,60.49
2019-01-17T02:18:07.490Z,59.29
2019-01-17T02:20:38.562Z,59.15
2019-01-17T02:23:08.533Z,58.85
2019-01-17T02:25:38.551Z,58.59
2019-01-17T02:28:08.422Z,58.34
2019-01-17T02:30:38.517Z,58.21
2019-01-17T02:33:08.649Z,58.64
2019-01-17T02:35:38.550Z,58.41
2019-01-17T02:38:08.449Z,59.01
2019-01-17T02:40:38.360Z,58.20
2019-01-17T02:43:08.309Z,58.04
2019-01-17T02:45:38.285Z,57.75
2019-01-17T02:48:08.215Z,57.79
2019-01-17T02:50:38.180Z,57.87
2019-01-17T02:53:08.155Z,58.06
2019-01-17T02:55:38.958Z,58.70
2019-01-17T02:58:08.901Z,59.48
2019-01-17T03:00:38.997Z,58.10
2019-01-17T03:03:08.876Z,57.50
2019-01-17T03:05:39.088Z,58.61
2019-01-17T03:08:09.269Z,59.23
2019-01-17T03:10:39.168Z,59.24
2019-01-17T03:13:09.447Z,58.25
2019-01-17T03:15:39.414Z,57.62
2019-01-17T03:18:09.969Z,57.57
2019-01-17T03:20:40.078Z,58.34
2019-01-17T03:23:10.059Z,57.73
2019-01-17T03:25:39.940Z,58.18
2019-01-17T03:28:10.113Z,58.64
2019-01-17T03:30:40.344Z,57.82
2019-01-17T03:33:10.290Z,60.06
2019-01-17T03:35:40.481Z,60.32
2019-01-17T03:38:10.439Z,58.61
2019-01-17T03:40:40.327Z,58.17
2019-01-17T03:43:10.288Z,57.07
2019-01-17T03:45:40.443Z,57.23
2019-01-17T03:48:10.690Z,58.71
2019-01-17T03:50:40.793Z,58.56
2019-01-17T03:53:10.679Z,58.58
2019-01-17T03:55:40.764Z,58.52
2019-01-17T03:58:10.741Z,57.72
2019-01-17T04:00:40.982Z,58.32
2019-01-17T04:03:10.863Z,58.76
2019-01-17T04:05:40.758Z,60.33
2019-01-17T04:08:10.649Z,58.65
2019-01-17T04:10:40.569Z,59.85
2019-01-17T04:13:10.533Z,64.35
2019-01-17T04:15:40.414Z,62.26
2019-01-17T04:18:10.689Z,62.17
2019-01-17T04:20:40.592Z,59.96
2019-01-17T04:23:10.642Z,60.49
2019-01-17T04:25:40.533Z,59.59
2019-01-17T04:28:10.754Z,60.52
2019-01-17T04:30:40.662Z,61.14
2019-01-17T04:33:10.757Z,60.11
2019-01-17T04:35:40.728Z,59.59
2019-01-17T04:38:10.901Z,60.55
2019-01-17T04:40:40.997Z,59.56
2019-01-17T04:43:10.914Z,60.14
2019-01-17T04:45:40.819Z,61.10
2019-01-17T04:48:11.003Z,59.69
2019-01-17T04:50:40.869Z,59.60
2019-01-17T04:53:10.740Z,60.64
2019-01-17T04:55:40.955Z,58.83
2019-01-17T04:58:11.482Z,59.19
2019-01-17T05:00:41.700Z,61.14
2019-01-17T05:03:11.929Z,61.97
2019-01-17T05:05:41.840Z,59.78
2019-01-17T05:08:11.731Z,60.09
2019-01-17T05:10:41.953Z,59.99
2019-01-17T05:13:11.846Z,62.71
2019-01-17T05:15:41.860Z,60.59
2019-01-17T05:18:12.337Z,59.59
2019-01-17T05:20:42.219Z,59.36
2019-01-17T05:23:12.097Z,62.89
2019-01-17T05:25:42.224Z,59.76
2019-01-17T05:28:12.411Z,61.57
2019-01-17T05:30:42.303Z,60.31
2019-01-17T05:33:12.688Z,61.42
2019-01-17T05:35:42.782Z,59.95
2019-01-17T05:38:13.611Z,62.59
2019-01-17T05:40:43.774Z,61.10
2019-01-17T05:43:13.673Z,60.39
2019-01-17T05:45:43.615Z,61.91
2019-01-17T05:48:13.540Z,61.40
2019-01-17T05:50:43.677Z,64.52
2019-01-17T05:53:13.763Z,63.71
2019-01-17T05:55:43.662Z,63.52
2019-01-17T05:58:13.834Z,60.56
2019-01-17T06:00:44.166Z,64.94
2019-01-17T06:03:14.048Z,65.72
2019-01-17T06:05:43.946Z,64.46
2019-01-17T06:08:13.923Z,66.33
2019-01-17T06:10:43.796Z,65.02
2019-01-17T06:13:13.943Z,66.60
2019-01-17T06:15:44.313Z,66.31
2019-01-17T06:18:14.182Z,64.56
2019-01-17T06:20:44.062Z,63.55
2019-01-17T06:23:13.979Z,63.00
2019-01-17T06:25:43.945Z,64.83
2019-01-17T06:28:14.008Z,64.72
2019-01-17T06:30:43.902Z,63.18
2019-01-17T06:33:14.105Z,64.84
2019-01-17T06:35:44.495Z,65.79
2019-01-17T06:38:14.605Z,68.43
2019-01-17T06:40:44.777Z,68.62
2019-01-17T06:43:14.894Z,67.96
2019-01-17T06:45:44.758Z,66.85
2019-01-17T06:48:15.183Z,68.43
2019-01-17T06:50:45.334Z,67.22
2019-01-17T06:53:15.258Z,66.37
2019-01-17T06:55:45.499Z,66.03
2019-01-17T06:58:15.391Z,66.89
2019-01-17T07:00:45.741Z,65.74
2019-01-17T07:03:15.665Z,64.68
2019-01-17T07:05:45.556Z,65.04
2019-01-17T07:08:15.454Z,63.84
2019-01-17T07:10:45.359Z,64.56
2019-01-17T07:13:15.253Z,63.28
2019-01-17T07:15:45.435Z,63.08
2019-01-17T07:18:15.372Z,66.05
2019-01-17T07:20:45.633Z,68.01
2019-01-17T07:23:15.952Z,67.87
2019-01-17T07:25:45.813Z,66.13
2019-01-17T07:28:15.762Z,69.37
2019-01-17T07:30:45.692Z,66.15
2019-01-17T07:33:15.568Z,64.51
2019-01-17T07:35:45.487Z,64.63
2019-01-17T07:38:15.521Z,66.27
2019-01-17T07:40:45.616Z,68.05
2019-01-17T07:43:15.763Z,67.94
2019-01-17T07:45:45.778Z,68.47
2019-01-17T07:48:15.810Z,67.12
2019-01-17T07:50:45.726Z,66.71
2019-01-17T07:53:15.706Z,65.41
2019-01-17T07:55:47.731Z,66.51
2019-01-17T07:58:17.483Z,67.51
2019-01-17T08:00:47.703Z,67.61
2019-01-17T08:03:18.437Z,67.04
2019-01-17T08:05:48.531Z,64.94
2019-01-17T08:08:18.443Z,63.93
2019-01-17T08:10:48.338Z,65.87
2019-01-17T08:13:18.277Z,64.99
2019-01-17T08:15:48.631Z,64.83
2019-01-17T08:18:18.991Z,65.68
2019-01-17T08:20:48.964Z,66.14
2019-01-17T08:23:18.846Z,64.30
2019-01-17T08:25:54.148Z,65.47
2019-01-17T08:28:20.461Z,65.62
2019-01-17T08:30:50.449Z,64.76
2019-01-17T08:33:21.038Z,66.54
2019-01-17T08:35:50.928Z,67.20
2019-01-17T08:38:20.945Z,64.30
2019-01-17T08:40:50.889Z,65.21
2019-01-17T08:43:21.538Z,63.85
2019-01-17T08:45:51.429Z,62.81
2019-01-17T08:48:21.370Z,62.59
2019-01-17T08:50:51.340Z,63.22
2019-01-17T08:53:21.233Z,63.20
2019-01-17T08:55:51.122Z,63.92
2019-01-17T08:58:21.053Z,62.98
2019-01-17T09:00:51.028Z,62.55
2019-01-17T09:03:21.429Z,63.40
2019-01-17T09:05:51.629Z,63.05
2019-01-17T09:08:21.601Z,64.84
2019-01-17T09:10:51.562Z,64.81
2019-01-17T09:13:21.767Z,64.27
2019-01-17T09:15:51.666Z,63.75
2019-01-17T09:18:21.820Z,62.68
2019-01-17T09:20:51.762Z,65.23
2019-01-17T09:23:21.876Z,62.95
2019-01-17T09:25:51.760Z,63.77
2019-01-17T09:28:21.912Z,62.71
2019-01-17T09:30:51.845Z,62.51
2019-01-17T09:33:21.745Z,63.01
2019-01-17T09:35:51.772Z,61.13
2019-01-17T09:38:21.711Z,65.58
2019-01-17T09:40:51.945Z,62.22
2019-01-17T09:43:22.303Z,62.89
2019-01-17T09:45:52.209Z,62.94
2019-01-17T09:48:22.172Z,64.41
2019-01-17T09:50:52.102Z,61.23
2019-01-17T09:53:22.542Z,64.09
2019-01-17T09:55:52.471Z,65.18
2019-01-17T09:58:22.475Z,64.65
2019-01-17T10:00:52.407Z,61.74
2019-01-17T10:03:22.291Z,61.60
2019-01-17T10:05:52.415Z,62.97
2019-01-17T10:08:22.818Z,60.57
2019-01-17T10:10:52.750Z,59.09
2019-01-17T10:13:22.608Z,61.58
2019-01-17T10:16:20.193Z,58.84
2019-01-17T10:19:05.791Z,60.07
2019-01-17T10:22:29.721Z,58.23
2019-01-17T10:25:46.899Z,57.57
2019-01-17T10:29:07.310Z,57.48
2019-01-17T10:32:24.933Z,57.27
2019-01-17T10:35:38.668Z,59.33
2019-01-17T10:38:52.651Z,58.46
2019-01-17T10:42:25.060Z,58.94
2019-01-17T10:45:47.795Z,57.56
2019-01-17T10:48:59.297Z,57.54
2019-01-17T10:52:20.714Z,57.60
2019-01-17T10:55:30.342Z,59.56
2019-01-17T10:58:31.720Z,58.18
2019-01-17T11:01:36.864Z,57.33
2019-01-17T11:04:32.448Z,59.38
2019-01-17T11:07:49.989Z,59.08
2019-01-17T11:11:21.452Z,57.63
2019-01-17T11:14:28.743Z,58.29
2019-01-17T11:17:32.435Z,59.33
2019-01-17T11:20:23.703Z,58.44
2019-01-17T11:23:33.764Z,58.45
2019-01-17T11:26:53.257Z,57.47
2019-01-17T11:30:07.365Z,60.07
2019-01-17T11:33:05.608Z,59.61
2019-01-17T11:36:12.464Z,59.84
2019-01-17T11:39:16.128Z,58.42
2019-01-17T11:42:28.881Z,56.41
2019-01-17T11:45:30.526Z,57.27
2019-01-17T11:48:52.897Z,57.09
2019-01-17T11:52:23.926Z,55.81
2019-01-17T11:55:35.581Z,56.99
2019-01-17T11:58:41.159Z,58.17
2019-01-17T12:02:20.268Z,59.29
2019-01-17T12:04:48.439Z,55.92
2019-01-17T12:07:19.488Z,56.20
2019-01-17T12:09:49.350Z,56.60
2019-01-17T12:12:23.561Z,54.92
2019-01-17T12:14:56.278Z,55.54
2019-01-17T12:17:26.361Z,56.84
2019-01-17T12:19:56.322Z,55.26
2019-01-17T12:22:26.371Z,55.71
2019-01-17T12:24:56.257Z,57.32
2019-01-17T12:27:26.192Z,55.50
2019-01-17T12:29:56.105Z,56.63
2019-01-17T12:32:26.314Z,55.69
2019-01-17T12:34:56.242Z,55.02
2019-01-17T12:37:26.297Z,57.82
2019-01-17T12:39:56.259Z,61.67
2019-01-17T12:42:26.449Z,57.43
2019-01-17T12:44:56.600Z,56.37
2019-01-17T12:47:26.487Z,54.13
2019-01-17T12:49:56.444Z,55.51
2019-01-17T12:52:26.613Z,56.53
2019-01-17T12:54:56.504Z,54.35
2019-01-17T12:57:26.604Z,53.03
2019-01-17T12:59:56.539Z,52.21
2019-01-17T13:02:26.483Z,52.45
2019-01-17T13:04:56.839Z,53.13
2019-01-17T13:07:26.967Z,56.45
2019-01-17T13:09:57.441Z,53.77
2019-01-17T13:12:27.595Z,55.45
2019-01-17T13:14:58.007Z,53.12
2019-01-17T13:17:28.258Z,52.90
2019-01-17T13:19:58.436Z,53.90
2019-01-17T13:22:28.485Z,52.14
2019-01-17T13:24:59.492Z,51.68
2019-01-17T13:27:30.330Z,51.49
2019-01-17T13:30:00.577Z,53.96
2019-01-17T13:32:31.293Z,52.52
2019-01-17T13:35:01.680Z,51.73
2019-01-17T13:37:31.875Z,50.70
2019-01-17T13:40:01.876Z,52.63
2019-01-17T13:42:32.039Z,50.26
2019-01-17T13:45:02.194Z,51.77
2019-01-17T13:47:32.250Z,52.02
2019-01-17T13:50:02.422Z,50.65
2019-01-17T13:52:32.529Z,50.96
2019-01-17T13:55:02.557Z,52.83
2019-01-17T13:57:32.838Z,53.68
2019-01-17T14:00:02.955Z,50.76
2019-01-17T14:02:34.366Z,51.31
2019-01-17T14:05:04.629Z,53.00
2019-01-17T14:07:34.878Z,50.55
2019-01-17T14:10:06.706Z,50.71
2019-01-17T14:12:36.700Z,51.19
2019-01-17T14:15:17.222Z,50.07
2019-01-17T14:17:47.242Z,50.36
2019-01-17T14:20:17.429Z,50.69
2019-01-17T14:22:47.633Z,51.57
2019-01-17T14:25:17.674Z,50.95
2019-01-17T14:27:47.706Z,51.35
2019-01-17T14:30:25.303Z,51.12
2019-01-17T14:32:55.824Z,52.69
2019-01-17T14:35:26.065Z,51.82
2019-01-17T14:37:56.281Z,50.34
2019-01-17T14:40:26.189Z,50.76
2019-01-17T14:42:56.075Z,50.73
2019-01-17T14:45:26.035Z,49.83
2019-01-17T14:47:55.914Z,50.79
2019-01-17T14:50:29.488Z,50.12
2019-01-17T14:52:59.538Z,50.46
2019-01-17T14:55:29.808Z,50.31
2019-01-17T14:57:59.736Z,50.48
2019-01-17T15:00:32.826Z,50.71
2019-01-17T15:03:02.798Z,50.41
2019-01-17T15:05:33.252Z,50.94
2019-01-17T15:08:03.128Z,51.53
2019-01-17T15:10:38.037Z,50.97
2019-01-17T15:13:08.183Z,51.00
2019-01-17T15:15:38.931Z,51.56
2019-01-17T15:18:09.568Z,51.49
2019-01-17T15:20:39.436Z,52.62
2019-01-17T15:23:11.312Z,52.75
2019-01-17T15:25:41.563Z,52.42
2019-01-17T15:28:11.696Z,53.10
2019-01-17T15:30:41.580Z,52.80
2019-01-17T15:33:11.534Z,52.93
2019-01-17T15:35:41.455Z,52.82
2019-01-17T15:38:11.489Z,52.93
2019-01-17T15:40:42.545Z,53.10
2019-01-17T15:43:12.775Z,53.67
2019-01-17T15:45:43.286Z,53.87
2019-01-17T15:48:13.207Z,54.24
2019-01-17T15:50:45.222Z,54.22
2019-01-17T15:53:16.460Z,56.14
2019-01-17T15:55:46.583Z,54.59
2019-01-17T15:58:17.036Z,54.54
2019-01-17T16:00:46.940Z,54.32
2019-01-17T16:03:16.957Z,54.45
2019-01-17T16:05:46.868Z,54.38
2019-01-17T16:08:16.756Z,54.67
2019-01-17T16:10:46.666Z,55.60
2019-01-17T16:13:16.533Z,55.02
2019-01-17T16:15:46.566Z,55.11
2019-01-17T16:18:16.740Z,55.34
2019-01-17T16:20:46.837Z,55.29
2019-01-17T16:23:16.966Z,55.60
2019-01-17T16:25:47.377Z,55.83
2019-01-17T16:28:17.257Z,56.63
2019-01-17T16:30:47.233Z,56.63
2019-01-17T16:33:17.263Z,56.47
2019-01-17T16:35:47.454Z,56.67
2019-01-17T16:38:17.493Z,56.47
2019-01-17T16:40:47.775Z,56.59
2019-01-17T16:43:17.753Z,56.85
2019-01-17T16:45:47.616Z,57.86
2019-01-17T16:48:17.823Z,57.88
2019-01-17T16:50:47.778Z,62.31
2019-01-17T16:53:18.164Z,61.30
2019-01-17T16:55:48.103Z,61.67
2019-01-17T16:58:18.380Z,61.88
2019-01-17T17:00:48.729Z,60.46
2019-01-17T17:03:18.863Z,60.72
2019-01-17T17:05:48.817Z,59.92
2019-01-17T17:08:18.991Z,60.30
2019-01-17T17:10:48.861Z,59.97
2019-01-17T17:13:19.011Z,59.63
2019-01-17T17:15:49.182Z,60.12
2019-01-17T17:18:19.089Z,59.87
2019-01-17T17:20:49.047Z,59.82
2019-01-17T17:23:19.171Z,61.55
2019-01-17T17:25:49.206Z,59.83
2019-01-17T17:28:22.310Z,62.91
2019-01-17T17:30:52.321Z,64.84
2019-01-17T17:33:22.199Z,66.88
2019-01-17T17:35:52.554Z,67.05
2019-01-17T17:38:22.473Z,66.55
2019-01-17T17:40:52.856Z,64.35
2019-01-17T17:43:22.776Z,62.64
2019-01-17T17:45:52.739Z,62.83
2019-01-17T17:48:23.257Z,61.60
2019-01-17T17:50:53.664Z,61.98
2019-01-17T17:53:23.590Z,63.45
2019-01-17T17:55:53.796Z,64.39
2019-01-17T17:58:23.953Z,63.07
2019-01-17T18:00:59.955Z,63.46
2019-01-17T18:03:29.861Z,62.75
2019-01-17T18:05:59.918Z,63.44
2019-01-17T18:08:29.997Z,65.06
2019-01-17T18:10:59.945Z,64.52
2019-01-17T18:13:29.832Z,64.09
2019-01-17T18:15:59.951Z,64.58
2019-01-17T18:18:29.915Z,67.31
2019-01-17T18:21:00.149Z,64.77
2019-01-17T18:23:30.276Z,65.51
2019-01-17T18:26:00.683Z,65.63
2019-01-17T18:28:30.599Z,65.03
2019-01-17T18:31:00.497Z,65.46
2019-01-17T18:33:30.830Z,65.14
2019-01-17T18:36:00.699Z,65.30
2019-01-17T18:38:30.580Z,66.53
2019-01-17T18:41:00.761Z,70.77
2019-01-17T18:43:30.694Z,67.87
2019-01-17T18:46:00.608Z,67.18
2019-01-17T18:48:30.480Z,66.67
2019-01-17T18:51:00.615Z,65.89
2019-01-17T18:53:30.613Z,67.35
2019-01-17T18:56:00.846Z,66.94
2019-01-17T18:58:31.467Z,66.59
2019-01-17T19:01:01.427Z,67.88
2019-01-17T19:03:31.313Z,67.12
2019-01-17T19:06:01.675Z,66.59
2019-01-17T19:08:31.736Z,67.59
2019-01-17T19:11:01.711Z,67.33
2019-01-17T19:13:31.616Z,66.75
2019-01-17T19:16:01.737Z,68.25
2019-01-17T19:18:31.969Z,67.28
2019-01-17T19:21:02.047Z,67.54
2019-01-17T19:23:32.280Z,68.12
2019-01-17T19:26:02.656Z,67.95
2019-01-17T19:28:32.533Z,67.71
2019-01-17T19:31:02.568Z,67.71
2019-01-17T19:33:32.729Z,67.34
2019-01-17T19:36:02.719Z,66.96
2019-01-17T19:38:32.680Z,67.43
2019-01-17T19:41:02.821Z,67.17
2019-01-17T19:43:33.203Z,66.58
2019-01-17T19:46:03.254Z,67.60
2019-01-17T19:48:33.418Z,68.57
2019-01-17T19:51:03.689Z,68.94
2019-01-17T19:53:34.112Z,67.89
2019-01-17T19:56:04.108Z,68.03
2019-01-17T19:58:34.022Z,67.53
2019-01-17T20:01:05.406Z,68.16
2019-01-17T20:03:35.328Z,68.11
2019-01-17T20:06:06.177Z,69.19
2019-01-17T20:08:36.453Z,68.49
2019-01-17T20:11:06.524Z,68.87
2019-01-17T20:13:36.589Z,68.90
2019-01-17T20:16:06.980Z,68.37
2019-01-17T20:18:37.593Z,67.10
2019-01-17T20:21:08.079Z,67.19
2019-01-17T20:23:37.978Z,66.83
2019-01-17T20:26:08.008Z,67.49
2019-01-17T20:28:38.023Z,67.60
2019-01-17T20:31:08.056Z,67.95
2019-01-17T20:33:38.288Z,68.46
2019-01-17T20:36:08.354Z,67.16
2019-01-17T20:38:38.520Z,66.84
2019-01-17T20:41:08.426Z,66.96
2019-01-17T20:43:38.346Z,66.24
2019-01-17T20:46:08.580Z,66.40
2019-01-17T20:48:40.130Z,65.71
2019-01-17T20:51:10.186Z,65.97
2019-01-17T20:53:40.149Z,65.78
2019-01-17T20:56:11.752Z,65.64
2019-01-17T20:58:42.395Z,64.50
2019-01-17T21:01:40.877Z,65.63
2019-01-17T21:04:11.461Z,64.98
2019-01-17T21:06:41.683Z,64.35
2019-01-17T21:09:12.405Z,64.60
2019-01-17T21:11:43.643Z,63.63
2019-01-17T21:14:13.706Z,63.03
2019-01-17T21:16:46.005Z,63.09
2019-01-17T21:19:15.968Z,63.60
2019-01-17T21:21:46.417Z,64.50
2019-01-17T21:24:17.490Z,67.97
2019-01-17T21:26:48.042Z,66.08
2019-01-17T21:29:18.905Z,65.56
2019-01-17T21:31:48.862Z,64.59
2019-01-17T21:34:18.953Z,64.78
2019-01-17T21:36:49.765Z,65.83
2019-01-17T21:39:19.759Z,64.97
2019-01-17T21:41:49.689Z,64.36
2019-01-17T21:44:19.661Z,65.97
2019-01-17T21:46:49.662Z,64.36
2019-01-17T21:49:22.100Z,64.84
2019-01-17T21:51:52.050Z,64.15
2019-01-17T21:54:24.008Z,64.42
2019-01-17T21:56:55.678Z,64.35
2019-01-17T21:59:26.485Z,65.32
2019-01-17T22:01:58.172Z,67.13
2019-01-17T22:04:28.388Z,67.23
2019-01-17T22:06:59.126Z,69.32
2019-01-17T22:09:29.611Z,68.32
2019-01-17T22:12:00.269Z,68.50
2019-01-17T22:14:31.566Z,65.02
2019-01-17T22:17:02.799Z,66.00
2019-01-17T22:19:33.950Z,63.81
2019-01-17T22:22:05.024Z,66.63
2019-01-17T22:24:37.806Z,66.63
2019-01-17T22:27:08.994Z,67.45
2019-01-17T22:29:40.040Z,65.84
2019-01-17T22:32:11.807Z,64.77
2019-01-17T22:34:42.931Z,63.39
2019-01-17T22:37:13.399Z,64.37
2019-01-17T22:39:43.725Z,64.20
2019-01-17T22:42:13.936Z,63.25
2019-01-17T22:44:44.484Z,64.96
2019-01-17T22:47:14.479Z,64.42
2019-01-17T22:49:44.662Z,65.38
2019-01-17T22:52:14.803Z,65.92
2019-01-17T22:54:45.352Z,66.97
2019-01-17T22:57:15.820Z,63.40
2019-01-17T22:59:47.855Z,65.06
2019-01-17T23:02:18.594Z,64.68
2019-01-17T23:04:49.227Z,64.30
2019-01-17T23:07:19.775Z,62.53
2019-01-17T23:09:49.947Z,64.60
2019-01-17T23:12:19.846Z,64.08
2019-01-17T23:14:50.448Z,62.40
2019-01-17T23:17:21.374Z,62.81
2019-01-17T23:19:53.078Z,63.22
2019-01-17T23:22:24.757Z,62.29
2019-01-17T23:24:54.597Z,62.70
2019-01-17T23:27:24.634Z,62.93
2019-01-17T23:29:54.556Z,63.63
2019-01-17T23:32:24.440Z,64.30
2019-01-17T23:34:54.585Z,64.12
2019-01-17T23:37:24.698Z,63.13
2019-01-17T23:39:54.589Z,62.07
2019-01-17T23:42:24.729Z,62.28
2019-01-17T23:44:54.641Z,61.93
2019-01-17T23:47:25.011Z,62.67
2019-01-17T23:49:55.374Z,62.35
2019-01-17T23:52:25.275Z,62.68
2019-01-17T23:54:55.263Z,63.89
2019-01-17T23:57:25.150Z,64.49
2019-01-17T23:59:55.343Z,65.99
